sensor_id;sensor_type;location;lat;lon;timestamp;P1;durP1;ratioP1;P2;durP2;ratioP2
48161;SDS011;33950;48.154;16.316;2022-12-07T00:00:22;9.68;;;4.85;;
48161;SDS011;33950;48.154;16.316;2022-12-07T00:03:08;10.52;;;5.28;;
48161;SDS011;33950;48.154;16.316;2022-12-07T00:05:56;11.10;;;6.38;;
48161;SDS011;33950;48.154;16.316;2022-12-07T00:08:43;14.35;;;6.10;;
48161;SDS011;33950;48.154;16.316;2022-12-07T00:11:31;12.93;;;6.63;;
48161;SDS011;33950;48.154;16.316;2022-12-07T00:14:17;11.85;;;6.90;;
48161;SDS011;33950;48.154;16.316;2022-12-07T00:17:04;14.77;;;7.10;;
48161;SDS011;33950;48.154;16.316;2022-12-07T00:19:50;11.30;;;6.45;;
48161;SDS011;33950;48.154;16.316;2022-12-07T00:22:36;12.77;;;6.65;;
48161;SDS011;33950;48.154;16.316;2022-12-07T00:25:22;13.02;;;6.53;;
48161;SDS011;33950;48.154;16.316;2022-12-07T00:28:09;15.52;;;7.88;;
48161;SDS011;33950;48.154;16.316;2022-12-07T00:30:59;13.93;;;7.45;;
48161;SDS011;33950;48.154;16.316;2022-12-07T00:33:46;14.52;;;8.25;;
48161;SDS011;33950;48.154;16.316;2022-12-07T00:36:32;17.40;;;8.82;;
48161;SDS011;33950;48.154;16.316;2022-12-07T00:39:18;17.85;;;8.45;;
48161;SDS011;33950;48.154;16.316;2022-12-07T00:42:05;14.43;;;7.38;;
48161;SDS011;33950;48.154;16.316;2022-12-07T00:44:52;17.55;;;8.70;;
48161;SDS011;33950;48.154;16.316;2022-12-07T00:47:38;17.75;;;9.02;;
48161;SDS011;33950;48.154;16.316;2022-12-07T00:50:24;13.68;;;7.97;;
48161;SDS011;33950;48.154;16.316;2022-12-07T00:53:10;14.65;;;8.23;;
48161;SDS011;33950;48.154;16.316;2022-12-07T00:55:56;15.20;;;7.90;;
48161;SDS011;33950;48.154;16.316;2022-12-07T00:58:43;19.42;;;9.27;;
48161;SDS011;33950;48.154;16.316;2022-12-07T01:01:31;16.63;;;9.02;;
48161;SDS011;33950;48.154;16.316;2022-12-07T01:04:19;16.42;;;8.88;;
48161;SDS011;33950;48.154;16.316;2022-12-07T01:07:05;17.70;;;8.45;;
48161;SDS011;33950;48.154;16.316;2022-12-07T01:09:51;15.82;;;8.60;;
48161;SDS011;33950;48.154;16.316;2022-12-07T01:12:37;17.55;;;8.88;;
48161;SDS011;33950;48.154;16.316;2022-12-07T01:15:23;18.08;;;9.52;;
48161;SDS011;33950;48.154;16.316;2022-12-07T01:18:11;15.38;;;8.52;;
48161;SDS011;33950;48.154;16.316;2022-12-07T01:20:58;18.38;;;9.43;;
48161;SDS011;33950;48.154;16.316;2022-12-07T01:23:45;19.35;;;10.57;;
48161;SDS011;33950;48.154;16.316;2022-12-07T01:26:31;20.98;;;10.38;;
48161;SDS011;33950;48.154;16.316;2022-12-07T01:29:17;22.02;;;11.48;;
48161;SDS011;33950;48.154;16.316;2022-12-07T01:32:03;22.35;;;10.95;;
48161;SDS011;33950;48.154;16.316;2022-12-07T01:34:51;24.27;;;11.38;;
48161;SDS011;33950;48.154;16.316;2022-12-07T01:37:37;24.83;;;12.68;;
48161;SDS011;33950;48.154;16.316;2022-12-07T01:40:24;21.63;;;11.90;;
48161;SDS011;33950;48.154;16.316;2022-12-07T01:43:13;22.77;;;12.70;;
48161;SDS011;33950;48.154;16.316;2022-12-07T01:46:02;23.23;;;11.10;;
48161;SDS011;33950;48.154;16.316;2022-12-07T01:48:49;23.98;;;12.70;;
48161;SDS011;33950;48.154;16.316;2022-12-07T01:51:36;26.30;;;12.68;;
48161;SDS011;33950;48.154;16.316;2022-12-07T01:54:24;25.00;;;12.45;;
48161;SDS011;33950;48.154;16.316;2022-12-07T01:57:10;26.83;;;12.50;;
48161;SDS011;33950;48.154;16.316;2022-12-07T01:59:58;26.38;;;12.48;;
48161;SDS011;33950;48.154;16.316;2022-12-07T02:02:45;24.88;;;12.85;;
48161;SDS011;33950;48.154;16.316;2022-12-07T02:05:37;26.25;;;13.27;;
48161;SDS011;33950;48.154;16.316;2022-12-07T02:08:27;24.58;;;12.10;;
48161;SDS011;33950;48.154;16.316;2022-12-07T02:11:13;25.23;;;12.65;;
48161;SDS011;33950;48.154;16.316;2022-12-07T02:13:59;22.85;;;11.65;;
48161;SDS011;33950;48.154;16.316;2022-12-07T02:16:47;23.15;;;11.77;;
48161;SDS011;33950;48.154;16.316;2022-12-07T02:19:49;24.25;;;10.27;;
48161;SDS011;33950;48.154;16.316;2022-12-07T02:22:52;26.38;;;12.63;;
48161;SDS011;33950;48.154;16.316;2022-12-07T02:26:06;26.33;;;12.23;;
48161;SDS011;33950;48.154;16.316;2022-12-07T02:29:15;26.15;;;9.25;;
48161;SDS011;33950;48.154;16.316;2022-12-07T02:32:08;22.63;;;10.90;;
48161;SDS011;33950;48.154;16.316;2022-12-07T02:35:01;21.38;;;11.18;;
48161;SDS011;33950;48.154;16.316;2022-12-07T02:37:58;23.55;;;11.40;;
48161;SDS011;33950;48.154;16.316;2022-12-07T02:40:50;22.10;;;11.38;;
48161;SDS011;33950;48.154;16.316;2022-12-07T02:43:39;18.83;;;10.43;;
48161;SDS011;33950;48.154;16.316;2022-12-07T02:46:30;21.35;;;10.77;;
48161;SDS011;33950;48.154;16.316;2022-12-07T02:49:19;22.83;;;10.60;;
48161;SDS011;33950;48.154;16.316;2022-12-07T02:52:08;22.73;;;11.40;;
48161;SDS011;33950;48.154;16.316;2022-12-07T02:54:54;23.05;;;10.60;;
48161;SDS011;33950;48.154;16.316;2022-12-07T02:57:43;23.00;;;10.98;;
48161;SDS011;33950;48.154;16.316;2022-12-07T03:00:40;21.67;;;11.50;;
48161;SDS011;33950;48.154;16.316;2022-12-07T03:03:36;21.23;;;10.57;;
48161;SDS011;33950;48.154;16.316;2022-12-07T03:06:28;20.73;;;10.32;;
48161;SDS011;33950;48.154;16.316;2022-12-07T03:09:19;19.27;;;10.85;;
48161;SDS011;33950;48.154;16.316;2022-12-07T03:12:11;24.48;;;10.77;;
48161;SDS011;33950;48.154;16.316;2022-12-07T03:15:01;22.60;;;10.68;;
48161;SDS011;33950;48.154;16.316;2022-12-07T03:17:52;22.23;;;11.15;;
48161;SDS011;33950;48.154;16.316;2022-12-07T03:20:41;21.33;;;11.10;;
48161;SDS011;33950;48.154;16.316;2022-12-07T03:23:29;20.73;;;11.32;;
48161;SDS011;33950;48.154;16.316;2022-12-07T03:26:19;19.63;;;8.75;;
48161;SDS011;33950;48.154;16.316;2022-12-07T03:29:07;18.65;;;9.48;;
48161;SDS011;33950;48.154;16.316;2022-12-07T03:32:00;19.13;;;9.77;;
48161;SDS011;33950;48.154;16.316;2022-12-07T03:34:51;17.92;;;9.85;;
48161;SDS011;33950;48.154;16.316;2022-12-07T03:37:44;20.13;;;10.05;;
48161;SDS011;33950;48.154;16.316;2022-12-07T03:40:34;18.98;;;9.75;;
48161;SDS011;33950;48.154;16.316;2022-12-07T03:43:25;19.65;;;9.30;;
48161;SDS011;33950;48.154;16.316;2022-12-07T03:46:16;19.52;;;8.82;;
48161;SDS011;33950;48.154;16.316;2022-12-07T03:49:06;17.95;;;9.50;;
48161;SDS011;33950;48.154;16.316;2022-12-07T03:52:00;17.02;;;8.60;;
48161;SDS011;33950;48.154;16.316;2022-12-07T03:54:55;20.85;;;8.63;;
48161;SDS011;33950;48.154;16.316;2022-12-07T03:57:46;17.10;;;8.75;;
48161;SDS011;33950;48.154;16.316;2022-12-07T04:00:35;17.92;;;8.90;;
48161;SDS011;33950;48.154;16.316;2022-12-07T04:03:22;16.63;;;8.27;;
48161;SDS011;33950;48.154;16.316;2022-12-07T04:06:08;17.67;;;9.32;;
48161;SDS011;33950;48.154;16.316;2022-12-07T04:08:54;23.00;;;8.93;;
48161;SDS011;33950;48.154;16.316;2022-12-07T04:11:41;18.08;;;9.65;;
48161;SDS011;33950;48.154;16.316;2022-12-07T04:14:28;19.30;;;9.30;;
48161;SDS011;33950;48.154;16.316;2022-12-07T04:17:14;17.83;;;8.13;;
48161;SDS011;33950;48.154;16.316;2022-12-07T04:20:00;18.40;;;8.85;;
48161;SDS011;33950;48.154;16.316;2022-12-07T04:22:46;17.85;;;8.70;;
48161;SDS011;33950;48.154;16.316;2022-12-07T04:25:32;16.60;;;8.82;;
48161;SDS011;33950;48.154;16.316;2022-12-07T04:28:20;19.10;;;9.57;;
48161;SDS011;33950;48.154;16.316;2022-12-07T04:31:06;17.40;;;8.52;;
48161;SDS011;33950;48.154;16.316;2022-12-07T04:33:52;16.90;;;9.45;;
48161;SDS011;33950;48.154;16.316;2022-12-07T04:36:38;16.17;;;8.38;;
48161;SDS011;33950;48.154;16.316;2022-12-07T04:39:25;20.55;;;8.85;;
48161;SDS011;33950;48.154;16.316;2022-12-07T04:42:12;20.40;;;9.63;;
48161;SDS011;33950;48.154;16.316;2022-12-07T04:44:59;16.90;;;8.40;;
48161;SDS011;33950;48.154;16.316;2022-12-07T04:47:45;17.70;;;8.35;;
48161;SDS011;33950;48.154;16.316;2022-12-07T04:50:31;18.40;;;8.85;;
48161;SDS011;33950;48.154;16.316;2022-12-07T04:53:18;16.13;;;8.50;;
48161;SDS011;33950;48.154;16.316;2022-12-07T04:56:04;19.50;;;8.95;;
48161;SDS011;33950;48.154;16.316;2022-12-07T04:58:51;18.95;;;9.43;;
48161;SDS011;33950;48.154;16.316;2022-12-07T05:01:39;19.27;;;8.63;;
48161;SDS011;33950;48.154;16.316;2022-12-07T05:04:26;18.50;;;8.30;;
48161;SDS011;33950;48.154;16.316;2022-12-07T05:07:12;18.00;;;8.35;;
48161;SDS011;33950;48.154;16.316;2022-12-07T05:09:58;16.90;;;8.43;;
48161;SDS011;33950;48.154;16.316;2022-12-07T05:12:44;17.15;;;8.93;;
48161;SDS011;33950;48.154;16.316;2022-12-07T05:15:31;15.65;;;8.10;;
48161;SDS011;33950;48.154;16.316;2022-12-07T05:18:18;17.33;;;8.20;;
48161;SDS011;33950;48.154;16.316;2022-12-07T05:21:04;16.60;;;8.50;;
48161;SDS011;33950;48.154;16.316;2022-12-07T05:23:50;23.55;;;9.70;;
48161;SDS011;33950;48.154;16.316;2022-12-07T05:26:37;19.88;;;8.20;;
48161;SDS011;33950;48.154;16.316;2022-12-07T05:29:23;19.60;;;8.75;;
48161;SDS011;33950;48.154;16.316;2022-12-07T05:32:09;20.83;;;8.35;;
48161;SDS011;33950;48.154;16.316;2022-12-07T05:34:56;20.58;;;7.80;;
48161;SDS011;33950;48.154;16.316;2022-12-07T05:37:43;17.65;;;7.55;;
48161;SDS011;33950;48.154;16.316;2022-12-07T05:40:29;16.45;;;7.05;;
48161;SDS011;33950;48.154;16.316;2022-12-07T05:43:15;16.27;;;7.47;;
48161;SDS011;33950;48.154;16.316;2022-12-07T05:46:01;14.90;;;7.80;;
48161;SDS011;33950;48.154;16.316;2022-12-07T05:48:47;14.23;;;7.18;;
48161;SDS011;33950;48.154;16.316;2022-12-07T05:51:35;12.57;;;6.80;;
48161;SDS011;33950;48.154;16.316;2022-12-07T05:54:21;13.75;;;7.05;;
48161;SDS011;33950;48.154;16.316;2022-12-07T05:57:07;13.38;;;6.63;;
48161;SDS011;33950;48.154;16.316;2022-12-07T05:59:53;17.52;;;7.00;;
48161;SDS011;33950;48.154;16.316;2022-12-07T06:02:39;11.48;;;5.80;;
48161;SDS011;33950;48.154;16.316;2022-12-07T06:05:25;13.45;;;6.68;;
48161;SDS011;33950;48.154;16.316;2022-12-07T06:08:13;13.02;;;7.13;;
48161;SDS011;33950;48.154;16.316;2022-12-07T06:11:00;13.35;;;6.32;;
48161;SDS011;33950;48.154;16.316;2022-12-07T06:14:04;17.88;;;6.07;;
48161;SDS011;33950;48.154;16.316;2022-12-07T06:16:50;13.02;;;6.63;;
48161;SDS011;33950;48.154;16.316;2022-12-07T06:19:37;13.40;;;6.22;;
48161;SDS011;33950;48.154;16.316;2022-12-07T06:22:23;16.23;;;6.95;;
48161;SDS011;33950;48.154;16.316;2022-12-07T06:25:11;11.68;;;6.40;;
48161;SDS011;33950;48.154;16.316;2022-12-07T06:27:57;13.98;;;6.47;;
48161;SDS011;33950;48.154;16.316;2022-12-07T06:30:43;13.10;;;6.38;;
48161;SDS011;33950;48.154;16.316;2022-12-07T06:33:29;17.80;;;6.78;;
48161;SDS011;33950;48.154;16.316;2022-12-07T06:36:15;11.18;;;6.10;;
48161;SDS011;33950;48.154;16.316;2022-12-07T06:39:01;16.70;;;6.43;;
48161;SDS011;33950;48.154;16.316;2022-12-07T06:41:49;12.27;;;6.15;;
48161;SDS011;33950;48.154;16.316;2022-12-07T06:44:37;16.83;;;6.80;;
48161;SDS011;33950;48.154;16.316;2022-12-07T06:47:23;13.13;;;6.97;;
48161;SDS011;33950;48.154;16.316;2022-12-07T06:50:09;20.05;;;7.57;;
48161;SDS011;33950;48.154;16.316;2022-12-07T06:52:55;13.20;;;7.25;;
48161;SDS011;33950;48.154;16.316;2022-12-07T06:55:41;14.40;;;6.72;;
48161;SDS011;33950;48.154;16.316;2022-12-07T06:58:29;18.02;;;7.38;;
48161;SDS011;33950;48.154;16.316;2022-12-07T07:01:15;14.13;;;6.95;;
48161;SDS011;33950;48.154;16.316;2022-12-07T07:04:03;12.30;;;6.55;;
48161;SDS011;33950;48.154;16.316;2022-12-07T07:06:49;12.80;;;6.50;;
48161;SDS011;33950;48.154;16.316;2022-12-07T07:09:35;12.98;;;6.30;;
48161;SDS011;33950;48.154;16.316;2022-12-07T07:12:21;16.20;;;7.13;;
48161;SDS011;33950;48.154;16.316;2022-12-07T07:15:09;12.85;;;6.43;;
48161;SDS011;33950;48.154;16.316;2022-12-07T07:17:57;13.25;;;6.72;;
48161;SDS011;33950;48.154;16.316;2022-12-07T07:20:43;8.90;;;5.35;;
48161;SDS011;33950;48.154;16.316;2022-12-07T07:23:29;14.80;;;6.75;;
48161;SDS011;33950;48.154;16.316;2022-12-07T07:26:16;12.30;;;6.75;;
48161;SDS011;33950;48.154;16.316;2022-12-07T07:29:02;14.77;;;6.55;;
48161;SDS011;33950;48.154;16.316;2022-12-07T07:31:50;14.23;;;6.25;;
48161;SDS011;33950;48.154;16.316;2022-12-07T07:34:36;10.63;;;6.15;;
48161;SDS011;33950;48.154;16.316;2022-12-07T07:37:22;14.35;;;6.40;;
48161;SDS011;33950;48.154;16.316;2022-12-07T07:40:09;10.88;;;5.80;;
48161;SDS011;33950;48.154;16.316;2022-12-07T07:42:55;11.77;;;5.53;;
48161;SDS011;33950;48.154;16.316;2022-12-07T07:45:42;12.23;;;5.68;;
48161;SDS011;33950;48.154;16.316;2022-12-07T07:48:31;10.93;;;6.10;;
48161;SDS011;33950;48.154;16.316;2022-12-07T07:51:17;11.50;;;5.88;;
48161;SDS011;33950;48.154;16.316;2022-12-07T07:54:03;10.20;;;5.53;;
48161;SDS011;33950;48.154;16.316;2022-12-07T07:56:49;11.15;;;5.72;;
48161;SDS011;33950;48.154;16.316;2022-12-07T07:59:35;9.32;;;4.53;;
48161;SDS011;33950;48.154;16.316;2022-12-07T08:02:21;12.82;;;5.70;;
48161;SDS011;33950;48.154;16.316;2022-12-07T08:05:09;11.30;;;5.90;;
48161;SDS011;33950;48.154;16.316;2022-12-07T08:07:57;10.93;;;5.50;;
48161;SDS011;33950;48.154;16.316;2022-12-07T08:10:43;10.20;;;5.32;;
48161;SDS011;33950;48.154;16.316;2022-12-07T08:13:29;13.30;;;5.43;;
48161;SDS011;33950;48.154;16.316;2022-12-07T08:16:15;9.40;;;5.35;;
48161;SDS011;33950;48.154;16.316;2022-12-07T08:19:01;10.38;;;5.13;;
48161;SDS011;33950;48.154;16.316;2022-12-07T08:21:51;9.10;;;5.22;;
48161;SDS011;33950;48.154;16.316;2022-12-07T08:24:37;11.38;;;5.35;;
48161;SDS011;33950;48.154;16.316;2022-12-07T08:27:23;9.77;;;5.63;;
48161;SDS011;33950;48.154;16.316;2022-12-07T08:30:12;7.93;;;4.15;;
48161;SDS011;33950;48.154;16.316;2022-12-07T08:32:58;8.68;;;5.40;;
48161;SDS011;33950;48.154;16.316;2022-12-07T08:35:44;8.77;;;5.78;;
48161;SDS011;33950;48.154;16.316;2022-12-07T08:38:33;10.13;;;5.40;;
48161;SDS011;33950;48.154;16.316;2022-12-07T08:41:20;10.68;;;5.72;;
48161;SDS011;33950;48.154;16.316;2022-12-07T08:44:06;8.68;;;4.85;;
48161;SDS011;33950;48.154;16.316;2022-12-07T08:46:52;8.82;;;4.93;;
48161;SDS011;33950;48.154;16.316;2022-12-07T08:49:43;11.50;;;5.15;;
48161;SDS011;33950;48.154;16.316;2022-12-07T08:52:35;8.77;;;4.43;;
48161;SDS011;33950;48.154;16.316;2022-12-07T08:55:24;7.85;;;4.68;;
48161;SDS011;33950;48.154;16.316;2022-12-07T08:58:13;11.10;;;5.13;;
48161;SDS011;33950;48.154;16.316;2022-12-07T09:00:59;11.95;;;5.65;;
48161;SDS011;33950;48.154;16.316;2022-12-07T09:03:46;12.35;;;5.38;;
48161;SDS011;33950;48.154;16.316;2022-12-07T09:06:32;11.38;;;5.20;;
48161;SDS011;33950;48.154;16.316;2022-12-07T09:09:19;7.75;;;5.10;;
48161;SDS011;33950;48.154;16.316;2022-12-07T09:12:06;8.80;;;4.97;;
48161;SDS011;33950;48.154;16.316;2022-12-07T09:14:52;8.93;;;4.85;;
48161;SDS011;33950;48.154;16.316;2022-12-07T09:17:38;7.93;;;4.47;;
48161;SDS011;33950;48.154;16.316;2022-12-07T09:20:25;13.32;;;4.97;;
48161;SDS011;33950;48.154;16.316;2022-12-07T09:23:11;9.05;;;5.03;;
48161;SDS011;33950;48.154;16.316;2022-12-07T09:25:58;14.32;;;5.60;;
48161;SDS011;33950;48.154;16.316;2022-12-07T09:28:46;11.10;;;6.22;;
48161;SDS011;33950;48.154;16.316;2022-12-07T09:31:32;15.90;;;5.80;;
48161;SDS011;33950;48.154;16.316;2022-12-07T09:34:20;10.57;;;5.93;;
48161;SDS011;33950;48.154;16.316;2022-12-07T09:37:06;13.32;;;5.40;;
48161;SDS011;33950;48.154;16.316;2022-12-07T09:39:53;11.32;;;6.65;;
48161;SDS011;33950;48.154;16.316;2022-12-07T09:42:41;13.30;;;6.63;;
48161;SDS011;33950;48.154;16.316;2022-12-07T09:45:32;10.93;;;6.05;;
48161;SDS011;33950;48.154;16.316;2022-12-07T09:48:21;10.40;;;5.25;;
48161;SDS011;33950;48.154;16.316;2022-12-07T09:51:13;10.02;;;5.70;;
48161;SDS011;33950;48.154;16.316;2022-12-07T09:54:02;11.50;;;6.32;;
48161;SDS011;33950;48.154;16.316;2022-12-07T09:56:48;10.32;;;6.15;;
48161;SDS011;33950;48.154;16.316;2022-12-07T09:59:34;10.45;;;6.28;;
48161;SDS011;33950;48.154;16.316;2022-12-07T10:02:24;12.23;;;5.80;;
48161;SDS011;33950;48.154;16.316;2022-12-07T10:05:18;11.65;;;6.28;;
48161;SDS011;33950;48.154;16.316;2022-12-07T10:08:08;11.02;;;5.80;;
48161;SDS011;33950;48.154;16.316;2022-12-07T10:10:56;8.30;;;4.47;;
48161;SDS011;33950;48.154;16.316;2022-12-07T10:13:44;14.20;;;5.22;;
48161;SDS011;33950;48.154;16.316;2022-12-07T10:16:35;12.55;;;4.53;;
48161;SDS011;33950;48.154;16.316;2022-12-07T10:19:28;9.95;;;5.78;;
48161;SDS011;33950;48.154;16.316;2022-12-07T10:22:16;8.35;;;4.82;;
48161;SDS011;33950;48.154;16.316;2022-12-07T10:25:07;11.40;;;5.07;;
48161;SDS011;33950;48.154;16.316;2022-12-07T10:28:08;10.55;;;5.55;;
48161;SDS011;33950;48.154;16.316;2022-12-07T10:31:01;12.32;;;5.25;;
48161;SDS011;33950;48.154;16.316;2022-12-07T10:34:00;9.95;;;3.95;;
48161;SDS011;33950;48.154;16.316;2022-12-07T10:36:48;10.18;;;5.22;;
48161;SDS011;33950;48.154;16.316;2022-12-07T10:39:40;9.77;;;5.35;;
48161;SDS011;33950;48.154;16.316;2022-12-07T10:42:28;10.07;;;4.93;;
48161;SDS011;33950;48.154;16.316;2022-12-07T10:45:16;9.73;;;5.57;;
48161;SDS011;33950;48.154;16.316;2022-12-07T10:48:05;8.52;;;5.43;;
48161;SDS011;33950;48.154;16.316;2022-12-07T10:50:58;9.55;;;4.10;;
48161;SDS011;33950;48.154;16.316;2022-12-07T10:53:55;9.85;;;4.75;;
48161;SDS011;33950;48.154;16.316;2022-12-07T10:56:53;7.85;;;4.40;;
48161;SDS011;33950;48.154;16.316;2022-12-07T10:59:57;9.80;;;5.75;;
48161;SDS011;33950;48.154;16.316;2022-12-07T11:03:03;12.10;;;4.53;;
48161;SDS011;33950;48.154;16.316;2022-12-07T11:06:03;8.70;;;5.22;;
48161;SDS011;33950;48.154;16.316;2022-12-07T11:09:06;9.00;;;5.05;;
48161;SDS011;33950;48.154;16.316;2022-12-07T11:12:24;12.07;;;5.90;;
48161;SDS011;33950;48.154;16.316;2022-12-07T11:15:18;10.60;;;6.03;;
48161;SDS011;33950;48.154;16.316;2022-12-07T11:18:11;10.23;;;5.97;;
48161;SDS011;33950;48.154;16.316;2022-12-07T11:21:06;13.00;;;5.95;;
48161;SDS011;33950;48.154;16.316;2022-12-07T11:23:56;9.07;;;4.78;;
48161;SDS011;33950;48.154;16.316;2022-12-07T11:26:55;10.45;;;5.78;;
48161;SDS011;33950;48.154;16.316;2022-12-07T11:29:51;13.07;;;5.03;;
48161;SDS011;33950;48.154;16.316;2022-12-07T11:32:50;8.48;;;4.88;;
48161;SDS011;33950;48.154;16.316;2022-12-07T11:35:45;7.32;;;4.72;;
48161;SDS011;33950;48.154;16.316;2022-12-07T11:38:43;6.63;;;4.15;;
48161;SDS011;33950;48.154;16.316;2022-12-07T11:41:34;9.25;;;5.07;;
48161;SDS011;33950;48.154;16.316;2022-12-07T11:44:26;10.88;;;5.43;;
48161;SDS011;33950;48.154;16.316;2022-12-07T11:47:20;9.52;;;4.80;;
48161;SDS011;33950;48.154;16.316;2022-12-07T11:50:16;13.68;;;5.38;;
48161;SDS011;33950;48.154;16.316;2022-12-07T11:53:14;10.38;;;5.85;;
48161;SDS011;33950;48.154;16.316;2022-12-07T11:58:53;14.93;;;6.07;;
48161;SDS011;33950;48.154;16.316;2022-12-07T12:01:47;13.73;;;6.68;;
48161;SDS011;33950;48.154;16.316;2022-12-07T12:04:40;11.98;;;6.28;;
48161;SDS011;33950;48.154;16.316;2022-12-07T12:07:35;10.27;;;5.97;;
48161;SDS011;33950;48.154;16.316;2022-12-07T12:10:24;10.55;;;5.90;;
48161;SDS011;33950;48.154;16.316;2022-12-07T12:13:23;10.50;;;6.03;;
48161;SDS011;33950;48.154;16.316;2022-12-07T12:16:38;8.55;;;5.78;;
48161;SDS011;33950;48.154;16.316;2022-12-07T12:19:37;8.40;;;4.88;;
48161;SDS011;33950;48.154;16.316;2022-12-07T12:22:29;9.65;;;5.35;;
48161;SDS011;33950;48.154;16.316;2022-12-07T12:25:23;9.85;;;5.68;;
48161;SDS011;33950;48.154;16.316;2022-12-07T12:28:22;15.25;;;5.65;;
48161;SDS011;33950;48.154;16.316;2022-12-07T12:31:12;7.75;;;4.90;;
48161;SDS011;33950;48.154;16.316;2022-12-07T12:34:02;8.82;;;5.03;;
48161;SDS011;33950;48.154;16.316;2022-12-07T12:36:50;8.10;;;5.10;;
48161;SDS011;33950;48.154;16.316;2022-12-07T12:39:38;8.48;;;5.40;;
48161;SDS011;33950;48.154;16.316;2022-12-07T12:42:42;6.97;;;4.30;;
48161;SDS011;33950;48.154;16.316;2022-12-07T12:45:30;9.80;;;4.75;;
48161;SDS011;33950;48.154;16.316;2022-12-07T12:48:27;8.68;;;4.50;;
48161;SDS011;33950;48.154;16.316;2022-12-07T12:54:27;17.02;;;5.50;;
48161;SDS011;33950;48.154;16.316;2022-12-07T12:57:15;8.25;;;5.25;;
48161;SDS011;33950;48.154;16.316;2022-12-07T13:03:26;7.13;;;4.43;;
48161;SDS011;33950;48.154;16.316;2022-12-07T13:06:19;8.80;;;5.35;;
48161;SDS011;33950;48.154;16.316;2022-12-07T13:09:19;12.07;;;5.13;;
48161;SDS011;33950;48.154;16.316;2022-12-07T13:12:11;9.20;;;5.38;;
48161;SDS011;33950;48.154;16.316;2022-12-07T13:15:01;10.82;;;6.22;;
48161;SDS011;33950;48.154;16.316;2022-12-07T13:17:55;10.35;;;5.72;;
48161;SDS011;33950;48.154;16.316;2022-12-07T13:20:57;13.40;;;6.40;;
48161;SDS011;33950;48.154;16.316;2022-12-07T13:23:54;11.60;;;6.53;;
48161;SDS011;33950;48.154;16.316;2022-12-07T13:26:58;12.00;;;6.15;;
48161;SDS011;33950;48.154;16.316;2022-12-07T13:29:50;10.82;;;6.47;;
48161;SDS011;33950;48.154;16.316;2022-12-07T13:32:37;14.00;;;7.38;;
48161;SDS011;33950;48.154;16.316;2022-12-07T13:35:30;11.00;;;6.18;;
48161;SDS011;33950;48.154;16.316;2022-12-07T13:38:28;12.70;;;7.05;;
48161;SDS011;33950;48.154;16.316;2022-12-07T13:41:22;13.60;;;7.50;;
48161;SDS011;33950;48.154;16.316;2022-12-07T13:44:12;12.02;;;7.00;;
48161;SDS011;33950;48.154;16.316;2022-12-07T13:47:01;11.95;;;6.47;;
48161;SDS011;33950;48.154;16.316;2022-12-07T13:49:59;11.82;;;6.65;;
48161;SDS011;33950;48.154;16.316;2022-12-07T13:52:46;11.45;;;6.63;;
48161;SDS011;33950;48.154;16.316;2022-12-07T13:55:33;13.07;;;7.07;;
48161;SDS011;33950;48.154;16.316;2022-12-07T13:58:20;11.23;;;6.50;;
48161;SDS011;33950;48.154;16.316;2022-12-07T14:04:24;15.23;;;6.50;;
48161;SDS011;33950;48.154;16.316;2022-12-07T14:07:18;20.75;;;6.97;;
48161;SDS011;33950;48.154;16.316;2022-12-07T14:10:22;21.60;;;7.78;;
48161;SDS011;33950;48.154;16.316;2022-12-07T14:13:24;15.68;;;7.22;;
48161;SDS011;33950;48.154;16.316;2022-12-07T14:16:36;12.15;;;7.43;;
48161;SDS011;33950;48.154;16.316;2022-12-07T14:19:41;16.45;;;6.75;;
48161;SDS011;33950;48.154;16.316;2022-12-07T14:22:32;19.02;;;7.70;;
48161;SDS011;33950;48.154;16.316;2022-12-07T14:25:20;15.52;;;8.15;;
48161;SDS011;33950;48.154;16.316;2022-12-07T14:28:24;14.63;;;7.00;;
48161;SDS011;33950;48.154;16.316;2022-12-07T14:31:16;15.70;;;7.85;;
48161;SDS011;33950;48.154;16.316;2022-12-07T14:34:27;23.95;;;7.82;;
48161;SDS011;33950;48.154;16.316;2022-12-07T14:37:14;13.70;;;7.57;;
48161;SDS011;33950;48.154;16.316;2022-12-07T14:40:00;14.55;;;7.18;;
48161;SDS011;33950;48.154;16.316;2022-12-07T14:42:55;13.30;;;6.80;;
48161;SDS011;33950;48.154;16.316;2022-12-07T14:46:01;17.33;;;7.20;;
48161;SDS011;33950;48.154;16.316;2022-12-07T14:48:48;14.15;;;7.20;;
48161;SDS011;33950;48.154;16.316;2022-12-07T14:51:36;16.50;;;8.68;;
48161;SDS011;33950;48.154;16.316;2022-12-07T14:54:24;14.45;;;7.57;;
48161;SDS011;33950;48.154;16.316;2022-12-07T14:57:12;13.48;;;7.07;;
48161;SDS011;33950;48.154;16.316;2022-12-07T14:59:59;17.13;;;7.63;;
48161;SDS011;33950;48.154;16.316;2022-12-07T15:02:46;10.95;;;7.05;;
48161;SDS011;33950;48.154;16.316;2022-12-07T15:05:32;16.25;;;7.15;;
48161;SDS011;33950;48.154;16.316;2022-12-07T15:08:20;15.10;;;8.45;;
48161;SDS011;33950;48.154;16.316;2022-12-07T15:11:08;20.40;;;9.40;;
48161;SDS011;33950;48.154;16.316;2022-12-07T15:13:56;14.27;;;7.60;;
48161;SDS011;33950;48.154;16.316;2022-12-07T15:16:57;14.55;;;7.47;;
48161;SDS011;33950;48.154;16.316;2022-12-07T15:19:43;15.25;;;7.88;;
48161;SDS011;33950;48.154;16.316;2022-12-07T15:22:29;14.32;;;8.38;;
48161;SDS011;33950;48.154;16.316;2022-12-07T15:25:18;15.40;;;8.43;;
48161;SDS011;33950;48.154;16.316;2022-12-07T15:28:04;16.02;;;8.40;;
48161;SDS011;33950;48.154;16.316;2022-12-07T15:30:50;19.63;;;9.43;;
48161;SDS011;33950;48.154;16.316;2022-12-07T15:33:36;17.25;;;9.27;;
48161;SDS011;33950;48.154;16.316;2022-12-07T15:36:23;22.05;;;8.52;;
48161;SDS011;33950;48.154;16.316;2022-12-07T15:39:11;16.00;;;8.35;;
48161;SDS011;33950;48.154;16.316;2022-12-07T15:41:59;20.27;;;8.80;;
48161;SDS011;33950;48.154;16.316;2022-12-07T15:44:45;20.83;;;8.40;;
48161;SDS011;33950;48.154;16.316;2022-12-07T15:47:50;18.73;;;8.32;;
48161;SDS011;33950;48.154;16.316;2022-12-07T15:50:36;17.65;;;7.93;;
48161;SDS011;33950;48.154;16.316;2022-12-07T15:53:22;18.60;;;7.90;;
48161;SDS011;33950;48.154;16.316;2022-12-07T15:56:08;16.75;;;8.75;;
48161;SDS011;33950;48.154;16.316;2022-12-07T15:58:56;19.65;;;9.00;;
48161;SDS011;33950;48.154;16.316;2022-12-07T16:01:43;16.38;;;9.18;;
48161;SDS011;33950;48.154;16.316;2022-12-07T16:04:29;17.15;;;9.32;;
48161;SDS011;33950;48.154;16.316;2022-12-07T16:07:15;18.70;;;8.55;;
48161;SDS011;33950;48.154;16.316;2022-12-07T16:10:03;19.33;;;8.73;;
48161;SDS011;33950;48.154;16.316;2022-12-07T16:12:50;17.40;;;8.40;;
48161;SDS011;33950;48.154;16.316;2022-12-07T16:15:38;17.02;;;8.48;;
48161;SDS011;33950;48.154;16.316;2022-12-07T16:18:25;22.08;;;9.60;;
48161;SDS011;33950;48.154;16.316;2022-12-07T16:21:11;15.38;;;8.70;;
48161;SDS011;33950;48.154;16.316;2022-12-07T16:23:58;19.83;;;8.57;;
48161;SDS011;33950;48.154;16.316;2022-12-07T16:26:44;15.05;;;7.95;;
48161;SDS011;33950;48.154;16.316;2022-12-07T16:29:30;14.40;;;7.90;;
48161;SDS011;33950;48.154;16.316;2022-12-07T16:32:18;18.95;;;8.70;;
48161;SDS011;33950;48.154;16.316;2022-12-07T16:35:04;16.52;;;8.10;;
48161;SDS011;33950;48.154;16.316;2022-12-07T16:37:50;13.43;;;7.78;;
48161;SDS011;33950;48.154;16.316;2022-12-07T16:40:36;21.23;;;8.82;;
48161;SDS011;33950;48.154;16.316;2022-12-07T16:43:22;16.35;;;8.07;;